Lisca, Slovenia

10:39 AM CET on March 03, 2015 (GMT +0100)
Velika Preska | Change Station
CLOSE
Current Station
Personal Weather Station
Location: Velika Preska, LITIJA
Elevation: 2585 ft
Nearby Weather Stations

Elev 2585 ft 46.05 °N, 14.96 °E | Updated 4 minutes ago

Partly Cloudy
Partly Cloudy
41.5 °F
Feels Like 42 °F
N
1.0
Wind Variable Wind from West
Gusts 2.0 mph

Today
High -- | Low -- °F
--% Chance of Precip.
Yesterday
High -- | Low -- °F
Precip. -- in
6:35 AM 5:47 PM
Waxing Gibbous, 95% visible
Pressure 30.24 in
Visibility 5.0 miles
Clouds Few 300 ft
Windchill 42 °F
Dew Point 35 °F
Humidity 77%
Rainfall 0.00 in
Snow Depth Not available.
UV 3 out of 12
Pollen Not available.
Air Quality Not available.
Flu Activity Not available.
METAR LOWK 030920Z VRB01KT 8000 FEW003 02/02 Q1024 R10L/19//95 NOSIG

More Conditions Fewer Conditions

Pressure 30.24 in
Visibility 5.0 miles
Clouds Few 300 ft
Windchill 42 °F
Dew Point 35 °F
Humidity 77%
Rainfall 0.00 in
Snow Depth Not available.
UV 3 out of 12
Pollen Not available.
Air Quality Not available.
Flu Activity Not available.
METAR LOWK 030920Z VRB01KT 8000 FEW003 02/02 Q1024 R10L/19//95 NOSIG

More Conditions Fewer Conditions

10-Day Weather Forecast

Almanac

Astronomy

Mar. 03, 2015 Rise Set
Actual Time
Civil Twilight
Nautical Twilight
Astronomical Twilight
Moon
Length of Visible Light
Length of Day
Tomorrow will be .
, % of the Moon is Illuminated

Today's Extremes

Country Highs Country Lows

Community

WunderPhotos

Upload Photos

1,802,075 photos uploaded!

WunderBlogs® & News

Nearby

Air Quality

  Air Quality AQ Index Pollutant
Not available.

Snow Depth

Station Depth Elevation

Earthquake Activity

City Distance Mag. Time & Date
Minimum magnitude displayed is 2.5.

Coastal Water Temperatures

Place Temperature

Nearby Weather Stations